Time;durP1;ratioP1;P1;durP2;ratioP2;P2;SDS_P1;SDS_P2;PMS_P1;PMS_P2;Temp;Humidity;BMP_temperature;BMP_pressure;BME280_temperature;BME280_humidity;BME280_pressure;Samples;Min_cycle;Max_cycle;Signal;HPM_P1;HPM_P2
2023/01/26 00:00:09;;;;;;;8.10;7.90;;;0.50;99.90;;;;;;5060644;28;20265;-82
2023/01/26 00:02:45;;;;;;;7.80;7.60;;;0.50;99.90;;;;;;5060502;28;20241;-82
2023/01/26 00:05:14;;;;;;;7.87;7.67;;;0.50;99.90;;;;;;5060158;28;20230;-82
2023/01/26 00:07:49;;;;;;;8.10;7.90;;;0.50;99.90;;;;;;5060259;28;20294;-82
2023/01/26 00:10:17;;;;;;;7.73;7.53;;;0.50;99.90;;;;;;5061017;28;20300;-82
2023/01/26 00:12:44;;;;;;;8.07;7.87;;;0.50;99.90;;;;;;5064280;28;20286;-82
2023/01/26 00:15:12;;;;;;;7.60;7.40;;;0.60;99.90;;;;;;5074945;28;20323;-82
2023/01/26 00:17:40;;;;;;;7.90;7.70;;;0.60;99.90;;;;;;5074661;28;20294;-82
2023/01/26 00:20:09;;;;;;;8.07;7.87;;;0.60;99.90;;;;;;5070406;28;20231;-82
2023/01/26 00:22:55;;;;;;;8.00;7.80;;;0.60;99.90;;;;;;5062668;28;20234;-82
2023/01/26 00:25:32;;;;;;;8.10;7.90;;;0.60;99.90;;;;;;5061631;28;20317;-82
2023/01/26 00:28:00;;;;;;;8.33;8.13;;;0.60;99.90;;;;;;5062157;28;20256;-82
2023/01/26 00:30:27;;;;;;;8.03;7.83;;;0.70;99.90;;;;;;5062110;28;20237;-82
2023/01/26 00:32:56;;;;;;;8.17;7.97;;;0.70;99.90;;;;;;5061366;28;20239;-83
2023/01/26 00:35:24;;;;;;;7.73;7.53;;;0.70;99.90;;;;;;5060459;28;20250;-82
2023/01/26 00:37:55;;;;;;;8.20;8.00;;;0.80;99.90;;;;;;5059902;28;20254;-83
2023/01/26 00:40:24;;;;;;;8.30;8.10;;;0.80;99.90;;;;;;5060448;28;20253;-82
2023/01/26 00:42:54;;;;;;;8.30;8.10;;;0.80;99.90;;;;;;5059999;28;20222;-83
2023/01/26 00:45:23;;;;;;;8.60;8.40;;;0.80;99.90;;;;;;5059462;28;20289;-82
2023/01/26 00:47:51;;;;;;;8.30;8.10;;;0.80;99.90;;;;;;5060346;28;20715;-83
2023/01/26 00:50:22;;;;;;;8.10;7.90;;;0.80;99.90;;;;;;5059791;28;20290;-83
2023/01/26 00:52:50;;;;;;;8.00;7.80;;;0.70;99.90;;;;;;5058920;28;20260;-82
2023/01/26 00:55:19;;;;;;;8.10;7.90;;;0.70;99.90;;;;;;5059052;28;20310;-82
2023/01/26 00:57:47;;;;;;;8.20;8.00;;;0.70;99.90;;;;;;5059331;28;20242;-83
2023/01/26 01:00:19;;;;;;;7.80;7.60;;;0.70;99.90;;;;;;5059651;28;20235;-82
2023/01/26 01:02:50;;;;;;;8.10;7.90;;;0.70;99.90;;;;;;5058796;28;20237;-82
2023/01/26 01:05:21;;;;;;;7.93;7.73;;;0.70;99.90;;;;;;5060739;28;20223;-82
2023/01/26 01:07:48;;;;;;;7.57;7.37;;;0.70;99.90;;;;;;5060373;28;20317;-82
2023/01/26 01:10:16;;;;;;;8.20;8.00;;;0.70;99.90;;;;;;5060529;28;20289;-82
2023/01/26 01:12:46;;;;;;;8.00;7.80;;;0.70;99.90;;;;;;5059693;28;20274;-82
2023/01/26 01:15:14;;;;;;;7.57;7.37;;;0.70;99.90;;;;;;5059473;28;20226;-82
2023/01/26 01:17:46;;;;;;;7.90;7.70;;;0.80;99.90;;;;;;5059837;28;20280;-83
2023/01/26 01:20:16;;;;;;;7.60;7.40;;;0.80;99.90;;;;;;5059929;28;20421;-82
2023/01/26 01:22:46;;;;;;;7.60;7.40;;;0.80;99.90;;;;;;5060681;28;20258;-81
2023/01/26 01:25:16;;;;;;;7.50;7.30;;;0.70;99.90;;;;;;5059987;28;20230;-82
2023/01/26 01:27:49;;;;;;;8.00;7.80;;;0.60;99.90;;;;;;5059688;28;20226;-82
2023/01/26 01:30:22;;;;;;;8.00;7.80;;;0.50;99.90;;;;;;5059665;28;20285;-82
2023/01/26 01:32:50;;;;;;;8.10;7.90;;;0.50;99.90;;;;;;5059270;28;20252;-82
2023/01/26 01:35:18;;;;;;;8.00;7.80;;;0.50;99.90;;;;;;5059028;28;20234;-81
2023/01/26 01:37:46;;;;;;;7.90;7.70;;;0.50;99.90;;;;;;5059166;28;20243;-82
2023/01/26 01:40:15;;;;;;;7.70;7.50;;;0.60;99.90;;;;;;5059383;28;20239;-82
2023/01/26 01:42:50;;;;;;;7.87;7.67;;;0.60;99.90;;;;;;5058853;28;20282;-82
2023/01/26 01:45:56;;;;;;;7.33;7.13;;;0.60;99.90;;;;;;5058551;28;20240;-81
2023/01/26 01:48:31;;;;;;;8.00;7.80;;;0.50;99.90;;;;;;4998149;28;20452;-81
2023/01/26 01:51:04;;;;;;;7.60;7.40;;;0.60;99.90;;;;;;5054510;28;20230;-82
2023/01/26 01:53:38;;;;;;;7.37;7.17;;;0.60;99.90;;;;;;5062654;28;20296;-82
2023/01/26 01:56:11;;;;;;;7.27;7.07;;;0.60;99.90;;;;;;5061823;28;20222;-82
2023/01/26 01:58:47;;;;;;;6.97;6.77;;;0.60;99.90;;;;;;5063113;28;20231;-82
2023/01/26 02:01:17;;;;;;;6.93;6.73;;;0.60;99.90;;;;;;5062039;28;20241;-81
2023/01/26 02:03:47;;;;;;;7.40;7.20;;;0.60;99.90;;;;;;5061860;28;20273;-82
2023/01/26 02:06:26;;;;;;;7.13;6.93;;;0.70;99.90;;;;;;5062641;28;20221;-82
2023/01/26 02:09:06;;;;;;;7.20;7.00;;;0.60;99.90;;;;;;5062589;28;20230;-82
2023/01/26 02:11:40;;;;;;;7.70;7.50;;;0.60;99.90;;;;;;5063054;28;20270;-82
2023/01/26 02:14:20;;;;;;;7.30;7.10;;;0.70;99.90;;;;;;5061724;28;20227;-82
2023/01/26 02:16:56;;;;;;;7.70;7.50;;;0.60;99.90;;;;;;5061339;28;20244;-82
2023/01/26 02:19:41;;;;;;;7.80;7.60;;;0.50;99.90;;;;;;5062124;28;20281;-82
2023/01/26 02:22:20;;;;;;;7.57;7.37;;;0.50;99.90;;;;;;5062082;28;20227;-82
2023/01/26 02:24:48;;;;;;;7.60;7.40;;;0.50;99.90;;;;;;5061694;28;20299;-82
2023/01/26 02:27:20;;;;;;;7.73;7.53;;;0.60;99.90;;;;;;5062207;28;20241;-82
2023/01/26 02:29:52;;;;;;;7.70;7.50;;;0.60;99.90;;;;;;5062044;28;20226;-82
2023/01/26 02:32:20;;;;;;;7.90;7.70;;;0.60;99.90;;;;;;5061567;28;20235;-82
2023/01/26 02:34:49;;;;;;;7.67;7.47;;;0.50;99.90;;;;;;5061094;28;20253;-81
2023/01/26 02:37:17;;;;;;;8.10;7.90;;;0.60;99.90;;;;;;5061633;28;20229;-82
2023/01/26 02:40:04;;;;;;;8.10;7.90;;;0.50;99.90;;;;;;5063040;28;20245;-82
2023/01/26 02:42:46;;;;;;;8.03;7.83;;;0.40;99.90;;;;;;5071998;28;20238;-82
2023/01/26 02:45:16;;;;;;;8.00;7.80;;;0.50;99.90;;;;;;5064259;28;20234;-82
2023/01/26 02:47:52;;;;;;;7.60;7.40;;;0.50;99.90;;;;;;5064422;28;20318;-82
2023/01/26 02:50:19;;;;;;;7.50;7.30;;;0.60;99.90;;;;;;5063581;28;20268;-82
2023/01/26 02:52:46;;;;;;;7.90;7.70;;;0.50;99.90;;;;;;5063041;28;20285;-82
2023/01/26 02:55:25;;;;;;;7.50;7.30;;;0.40;99.90;;;;;;5063229;28;20240;-81
2023/01/26 02:58:08;;;;;;;7.20;7.00;;;0.50;99.90;;;;;;5062443;28;20253;-82
2023/01/26 03:00:41;;;;;;;7.30;7.10;;;0.40;99.90;;;;;;5061300;28;20286;-82
2023/01/26 03:03:16;;;;;;;7.43;7.23;;;0.40;99.90;;;;;;5062400;28;20250;-81
2023/01/26 03:05:53;;;;;;;7.50;7.30;;;0.50;99.90;;;;;;5061790;28;20240;-82
2023/01/26 03:08:34;;;;;;;7.60;7.40;;;0.50;99.90;;;;;;5063145;28;20250;-82
2023/01/26 03:11:07;;;;;;;7.27;7.07;;;0.50;99.90;;;;;;5063249;28;20223;-82
2023/01/26 03:13:36;;;;;;;7.30;7.10;;;0.50;99.90;;;;;;5061319;28;20239;-82
2023/01/26 03:16:10;;;;;;;7.30;7.10;;;0.50;99.90;;;;;;5060965;28;20235;-82
2023/01/26 03:29:45;;;;;;;7.60;7.40;;;0.60;99.90;;;;;;5061626;28;20218;-82
2023/01/26 03:32:14;;;;;;;7.30;7.10;;;0.50;99.90;;;;;;5061172;28;20302;-82
2023/01/26 03:35:08;;;;;;;7.20;7.00;;;0.50;99.90;;;;;;5061004;28;20333;-82
2023/01/26 03:37:42;;;;;;;7.20;7.00;;;0.50;99.90;;;;;;5061054;28;20227;-82
2023/01/26 03:56:49;;;;;;;7.40;7.20;;;0.50;99.90;;;;;;5061736;28;20227;-82
2023/01/26 03:59:36;;;;;;;7.40;7.20;;;0.50;99.90;;;;;;5067827;28;20237;-82
2023/01/26 04:10:24;;;;;;;7.63;7.43;;;0.20;99.90;;;;;;5059818;28;20226;-82
2023/01/26 04:23:55;;;;;;;7.33;7.13;;;0.30;99.90;;;;;;5059878;28;20227;-82
2023/01/26 04:26:23;;;;;;;7.30;7.10;;;0.30;99.90;;;;;;5059569;28;20227;-82
2023/01/26 04:28:51;;;;;;;7.20;7.00;;;0.30;99.90;;;;;;5059525;28;20234;-82
2023/01/26 04:31:19;;;;;;;7.20;7.00;;;0.40;99.90;;;;;;5059528;28;20240;-82
2023/01/26 04:33:51;;;;;;;7.10;6.90;;;0.40;99.90;;;;;;5059054;28;20223;-82
2023/01/26 04:36:28;;;;;;;7.37;7.17;;;0.40;99.90;;;;;;5059155;28;20784;-82
2023/01/26 04:38:58;;;;;;;7.27;7.07;;;0.50;99.90;;;;;;5059948;28;20230;-82
2023/01/26 04:41:35;;;;;;;7.33;7.13;;;0.50;99.90;;;;;;5059508;28;20320;-81
2023/01/26 04:44:07;;;;;;;7.53;7.33;;;0.50;99.90;;;;;;5059120;28;20262;-82
2023/01/26 04:46:36;;;;;;;7.40;7.20;;;0.50;99.90;;;;;;5059628;28;20317;-82
2023/01/26 04:49:11;;;;;;;7.43;7.23;;;0.50;99.90;;;;;;5060018;28;20267;-82
2023/01/26 04:51:44;;;;;;;7.50;7.30;;;0.50;99.90;;;;;;5060802;28;20321;-82
2023/01/26 04:54:11;;;;;;;7.10;6.90;;;0.50;99.90;;;;;;5059973;28;20231;-82
2023/01/26 04:56:42;;;;;;;7.30;7.10;;;0.50;99.90;;;;;;5060091;28;20262;-82
2023/01/26 04:59:11;;;;;;;7.60;7.40;;;0.50;99.90;;;;;;5060123;28;20234;-82
2023/01/26 05:01:42;;;;;;;7.90;7.70;;;0.50;99.90;;;;;;5059274;28;20277;-82
2023/01/26 05:04:15;;;;;;;7.80;7.60;;;0.50;99.90;;;;;;5059867;28;20266;-82
2023/01/26 05:06:49;;;;;;;7.80;7.60;;;0.50;99.90;;;;;;5059558;28;20234;-82
2023/01/26 05:09:17;;;;;;;7.60;7.40;;;0.40;99.90;;;;;;5059142;28;20234;-83
2023/01/26 05:11:49;;;;;;;7.70;7.50;;;0.30;99.90;;;;;;5059886;28;20233;-82
2023/01/26 05:14:19;;;;;;;7.87;7.67;;;0.30;99.90;;;;;;5059193;28;20239;-82
2023/01/26 05:16:50;;;;;;;7.80;7.60;;;0.20;99.90;;;;;;5059005;28;20285;-81
2023/01/26 05:19:19;;;;;;;8.10;7.90;;;0.10;99.90;;;;;;5060274;28;20277;-81
2023/01/26 05:21:46;;;;;;;7.70;7.50;;;0.10;99.90;;;;;;5071415;28;20238;-82
2023/01/26 05:24:16;;;;;;;8.07;7.87;;;0.00;99.90;;;;;;5060381;28;20217;-82
2023/01/26 05:26:44;;;;;;;8.03;7.83;;;0.10;99.90;;;;;;5060669;28;20237;-82
2023/01/26 05:29:14;;;;;;;7.77;7.57;;;0.10;99.90;;;;;;5061155;28;20254;-82
2023/01/26 05:31:42;;;;;;;8.00;7.80;;;0.20;99.90;;;;;;5060895;28;20229;-82
2023/01/26 05:34:10;;;;;;;7.53;7.33;;;0.20;99.90;;;;;;5060259;28;20224;-82
2023/01/26 05:36:41;;;;;;;7.20;7.00;;;0.20;99.90;;;;;;5060957;28;20265;-82
2023/01/26 05:39:09;;;;;;;7.23;7.03;;;0.20;99.90;;;;;;5062321;28;20254;-82
2023/01/26 05:41:37;;;;;;;7.40;7.20;;;0.10;99.90;;;;;;5061142;28;20269;-82
2023/01/26 05:44:11;;;;;;;7.20;7.00;;;0.10;99.90;;;;;;5060251;28;20317;-82
2023/01/26 05:46:39;;;;;;;6.90;6.70;;;0.20;99.90;;;;;;5063907;28;20321;-81
2023/01/26 05:49:09;;;;;;;6.67;6.47;;;0.30;99.90;;;;;;5064516;28;20258;-82
2023/01/26 05:51:38;;;;;;;7.30;7.10;;;0.40;99.90;;;;;;5064713;28;20234;-81
2023/01/26 05:54:08;;;;;;;7.43;7.23;;;0.40;99.90;;;;;;5064404;28;20335;-81
2023/01/26 05:56:36;;;;;;;7.20;7.00;;;0.50;99.90;;;;;;5065535;28;20291;-81
2023/01/26 05:59:05;;;;;;;7.40;7.20;;;0.50;99.90;;;;;;5063496;28;20245;-81
2023/01/26 06:01:33;;;;;;;7.30;7.10;;;0.40;99.90;;;;;;5063100;28;20226;-81
2023/01/26 06:04:00;;;;;;;7.10;6.90;;;0.50;99.90;;;;;;5062544;28;20229;-81
2023/01/26 06:06:32;;;;;;;7.27;7.07;;;0.50;99.90;;;;;;5062664;28;20235;-81
2023/01/26 06:09:05;;;;;;;7.07;6.87;;;0.50;99.90;;;;;;5063735;28;20321;-80
2023/01/26 06:11:33;;;;;;;7.43;7.23;;;0.40;99.90;;;;;;5063791;28;20241;-81
2023/01/26 06:14:03;;;;;;;7.30;7.10;;;0.30;99.90;;;;;;5064032;28;20249;-81
2023/01/26 06:16:33;;;;;;;7.10;6.90;;;0.20;99.90;;;;;;5062826;28;20266;-81
2023/01/26 06:19:03;;;;;;;7.20;7.00;;;0.20;99.90;;;;;;5062543;28;20243;-82
2023/01/26 06:21:34;;;;;;;7.13;6.93;;;0.30;99.90;;;;;;5063512;28;20269;-81
2023/01/26 06:24:04;;;;;;;7.10;6.90;;;0.40;99.90;;;;;;5063481;28;20231;-82
2023/01/26 06:26:31;;;;;;;7.10;6.90;;;0.40;99.90;;;;;;5063288;28;20231;-81
2023/01/26 06:28:59;;;;;;;6.90;6.70;;;0.50;99.90;;;;;;5063339;28;20321;-81
2023/01/26 06:31:28;;;;;;;7.20;7.00;;;0.50;99.90;;;;;;5063349;28;20264;-81
2023/01/26 06:33:57;;;;;;;7.30;7.10;;;0.30;99.90;;;;;;5062745;28;20230;-81
2023/01/26 06:36:24;;;;;;;7.27;7.07;;;0.30;99.90;;;;;;5063245;28;20235;-81
2023/01/26 06:38:52;;;;;;;7.30;7.10;;;0.30;99.90;;;;;;5066745;28;20242;-80
2023/01/26 06:41:21;;;;;;;7.30;7.10;;;0.40;99.90;;;;;;5066671;28;20223;-80
2023/01/26 06:43:50;;;;;;;7.07;6.87;;;0.30;99.90;;;;;;5067590;28;20269;-81
2023/01/26 06:46:19;;;;;;;7.47;7.27;;;0.30;99.90;;;;;;5066394;28;20310;-81
2023/01/26 06:48:47;;;;;;;7.23;7.03;;;0.10;99.90;;;;;;5066741;28;20265;-80
2023/01/26 06:51:58;;;;;;;7.80;7.60;;;0.20;99.90;;;;;;5066863;28;20223;-81
2023/01/26 06:54:25;;;;;;;7.63;7.43;;;0.20;99.90;;;;;;5051726;28;20333;-80
2023/01/26 06:56:54;;;;;;;8.20;8.00;;;0.30;99.90;;;;;;5065142;28;20344;-81
2023/01/26 06:59:22;;;;;;;8.37;8.17;;;0.40;99.90;;;;;;5065830;28;20329;-81
2023/01/26 07:01:50;;;;;;;8.23;8.03;;;0.40;99.90;;;;;;5064851;28;20241;-81
2023/01/26 07:04:20;;;;;;;8.00;7.80;;;0.40;99.90;;;;;;5065138;28;20218;-81
2023/01/26 07:06:49;;;;;;;8.20;8.00;;;0.40;99.90;;;;;;5064552;28;20238;-81
2023/01/26 07:09:17;;;;;;;8.27;8.07;;;0.30;99.90;;;;;;5065138;28;20234;-81
2023/01/26 07:11:44;;;;;;;8.00;7.80;;;0.40;99.90;;;;;;5066100;28;20294;-81
2023/01/26 07:14:13;;;;;;;7.80;7.60;;;0.30;99.90;;;;;;5065425;28;20227;-81
2023/01/26 07:16:41;;;;;;;7.63;7.43;;;0.30;99.90;;;;;;5065151;28;20234;-81
2023/01/26 07:19:10;;;;;;;7.70;7.50;;;0.30;99.90;;;;;;5064913;28;20298;-81
2023/01/26 07:21:37;;;;;;;7.63;7.43;;;0.20;99.90;;;;;;5065105;28;20223;-81
2023/01/26 07:24:06;;;;;;;7.80;7.60;;;0.20;99.90;;;;;;5064474;28;20288;-81
2023/01/26 07:26:35;;;;;;;8.00;7.80;;;0.30;99.90;;;;;;5064650;28;21026;-81
2023/01/26 07:29:02;;;;;;;8.00;7.80;;;0.30;99.90;;;;;;5065368;28;20226;-82
2023/01/26 07:31:32;;;;;;;7.90;7.70;;;0.40;99.90;;;;;;5066438;28;20306;-81
2023/01/26 07:34:06;;;;;;;7.97;7.77;;;0.40;99.90;;;;;;5069179;28;20278;-81
2023/01/26 07:36:33;;;;;;;8.10;7.90;;;0.40;99.90;;;;;;5074561;28;20223;-81
2023/01/26 07:39:04;;;;;;;8.10;7.90;;;0.40;99.90;;;;;;5075014;28;20302;-81
2023/01/26 07:41:32;;;;;;;7.73;7.53;;;0.40;99.90;;;;;;5067245;28;20278;-82
2023/01/26 07:44:00;;;;;;;7.87;7.67;;;0.30;99.90;;;;;;5071394;28;20244;-81
2023/01/26 07:46:33;;;;;;;7.93;7.73;;;0.30;99.90;;;;;;5084262;28;20234;-82
2023/01/26 07:49:04;;;;;;;7.63;7.43;;;0.40;99.90;;;;;;5083530;28;20249;-81
2023/01/26 07:51:31;;;;;;;7.43;7.23;;;0.30;99.90;;;;;;5087020;28;20286;-82
2023/01/26 07:53:59;;;;;;;7.60;7.40;;;0.30;99.90;;;;;;5090589;28;20244;-81
2023/01/26 07:56:27;;;;;;;7.80;7.60;;;0.40;99.90;;;;;;5088547;28;21200;-81
2023/01/26 07:58:55;;;;;;;7.70;7.50;;;0.40;99.90;;;;;;5093711;28;20254;-81
2023/01/26 08:01:23;;;;;;;7.70;7.50;;;0.50;99.90;;;;;;5098110;28;20244;-81
2023/01/26 08:03:52;;;;;;;7.70;7.50;;;0.60;99.90;;;;;;5097195;28;20226;-81
2023/01/26 08:06:23;;;;;;;7.63;7.43;;;0.60;99.90;;;;;;5082766;28;20215;-81
2023/01/26 08:08:52;;;;;;;7.80;7.60;;;0.60;99.90;;;;;;5085888;28;20337;-81
2023/01/26 08:11:25;;;;;;;8.00;7.80;;;0.50;99.90;;;;;;5097519;28;20233;-80
2023/01/26 08:13:56;;;;;;;8.00;7.80;;;0.50;99.90;;;;;;5099832;28;20220;-81
2023/01/26 08:16:24;;;;;;;8.00;7.80;;;0.40;99.90;;;;;;5099948;28;20230;-79
2023/01/26 08:18:57;;;;;;;8.50;8.30;;;0.40;99.90;;;;;;5098871;28;20416;-82
2023/01/26 08:21:27;;;;;;;8.40;8.20;;;0.50;99.90;;;;;;5100776;28;20232;-80
2023/01/26 08:24:06;;;;;;;8.30;8.10;;;0.60;99.90;;;;;;5100242;28;20222;-80
2023/01/26 08:26:33;;;;;;;8.30;8.10;;;0.80;99.90;;;;;;5094470;28;20241;-81
2023/01/26 08:29:01;;;;;;;8.27;8.07;;;0.70;99.90;;;;;;5098651;28;20286;-81
2023/01/26 08:31:29;;;;;;;8.23;8.03;;;0.80;99.90;;;;;;5100569;28;20237;-80
2023/01/26 08:33:57;;;;;;;8.30;8.10;;;0.60;99.90;;;;;;5100406;28;20268;-80
2023/01/26 08:36:27;;;;;;;8.10;7.90;;;0.60;99.90;;;;;;5100252;28;20224;-81
2023/01/26 08:38:55;;;;;;;7.90;7.70;;;0.50;99.90;;;;;;5100627;28;20207;-81
2023/01/26 08:41:22;;;;;;;8.07;7.87;;;0.50;99.90;;;;;;5100086;28;20269;-80
2023/01/26 08:43:51;;;;;;;7.80;7.60;;;0.60;99.90;;;;;;5099736;28;20286;-83
2023/01/26 08:46:19;;;;;;;8.30;8.10;;;0.60;99.90;;;;;;5069355;28;20215;-81
2023/01/26 08:48:47;;;;;;;8.23;8.03;;;0.60;99.90;;;;;;5096260;28;20265;-80
2023/01/26 08:51:14;;;;;;;8.60;8.40;;;0.50;99.90;;;;;;5100126;28;20214;-81
2023/01/26 08:53:44;;;;;;;8.60;8.40;;;0.30;99.90;;;;;;5099948;28;20214;-81
2023/01/26 08:56:13;;;;;;;8.50;8.30;;;0.20;99.90;;;;;;5099851;28;20250;-81
2023/01/26 08:58:41;;;;;;;8.50;8.30;;;0.20;99.90;;;;;;5098858;28;20221;-80
2023/01/26 09:01:11;;;;;;;8.37;8.17;;;0.20;99.90;;;;;;5099482;28;20221;-80
2023/01/26 09:03:38;;;;;;;8.27;8.07;;;0.10;99.90;;;;;;5099671;28;20222;-80
2023/01/26 09:06:08;;;;;;;8.50;8.30;;;0.20;99.90;;;;;;5094541;28;20226;-82
2023/01/26 09:08:36;;;;;;;8.77;8.57;;;0.20;99.90;;;;;;5090419;28;20236;-82
2023/01/26 09:11:08;;;;;;;8.50;8.30;;;0.30;99.90;;;;;;5085084;28;20253;-82
2023/01/26 09:13:37;;;;;;;8.30;8.10;;;0.30;99.90;;;;;;5084406;28;20242;-82
2023/01/26 09:16:06;;;;;;;8.47;8.27;;;0.40;99.90;;;;;;5083417;28;20229;-81
2023/01/26 09:18:34;;;;;;;8.20;8.00;;;0.50;99.90;;;;;;5089403;28;20258;-81
2023/01/26 09:21:06;;;;;;;9.17;8.87;;;0.50;99.90;;;;;;5087681;28;20304;-80
2023/01/26 09:23:34;;;;;;;8.70;8.50;;;0.60;99.90;;;;;;5087970;28;20222;-80
2023/01/26 09:26:02;;;;;;;7.80;7.60;;;0.80;99.90;;;;;;5086276;28;20230;-80
2023/01/26 09:28:53;;;;;;;7.37;7.17;;;0.90;99.90;;;;;;5085646;28;20733;-85
2023/01/26 09:31:28;;;;;;;7.90;7.70;;;1.00;99.90;;;;;;5066120;28;20317;-84
2023/01/26 09:33:57;;;;;;;7.90;7.70;;;0.90;99.90;;;;;;5066277;28;20288;-83
2023/01/26 09:36:24;;;;;;;7.93;7.73;;;0.90;99.90;;;;;;5073367;28;20234;-82
2023/01/26 09:38:54;;;;;;;8.40;8.20;;;0.90;99.90;;;;;;5076981;28;20249;-83
2023/01/26 09:41:44;;;;;;;8.40;8.20;;;0.80;99.90;;;;;;5065548;28;20289;-83
2023/01/26 09:44:21;;;;;;;8.40;8.20;;;0.80;99.90;;;;;;5074560;28;20230;-84
2023/01/26 09:47:03;;;;;;;8.60;8.40;;;0.60;99.90;;;;;;5068372;28;20240;-82
2023/01/26 09:49:47;;;;;;;8.53;8.33;;;0.60;99.90;;;;;;5070243;28;20301;-82
2023/01/26 09:52:23;;;;;;;8.57;8.37;;;0.60;99.90;;;;;;5063991;28;20283;-81
2023/01/26 09:54:54;;;;;;;8.80;8.60;;;0.60;99.90;;;;;;5069924;28;20258;-83
2023/01/26 09:57:34;;;;;;;8.80;8.60;;;0.70;99.90;;;;;;5062615;28;20238;-85
2023/01/26 10:00:10;;;;;;;8.70;8.50;;;0.60;99.90;;;;;;5064741;28;20262;-82
2023/01/26 10:02:55;;;;;;;8.50;8.30;;;0.70;99.90;;;;;;5074593;28;20222;-82
2023/01/26 10:05:30;;;;;;;8.40;8.20;;;0.70;99.90;;;;;;5072290;28;20287;-82
2023/01/26 10:07:58;;;;;;;8.67;8.47;;;0.70;99.90;;;;;;5080287;28;20241;-82
2023/01/26 10:10:34;;;;;;;8.30;8.10;;;0.60;99.90;;;;;;5064934;28;20240;-83
2023/01/26 10:13:03;;;;;;;8.30;8.10;;;0.60;99.90;;;;;;5078945;28;20289;-82
2023/01/26 10:15:39;;;;;;;8.23;8.03;;;0.50;99.90;;;;;;5075482;28;20227;-81
2023/01/26 10:18:13;;;;;;;8.43;8.23;;;0.50;99.90;;;;;;5070859;28;20229;-82
2023/01/26 10:20:49;;;;;;;8.50;8.30;;;0.50;99.90;;;;;;5070589;28;20234;-82
2023/01/26 10:23:22;;;;;;;8.50;8.30;;;0.50;99.90;;;;;;5069599;28;20987;-82
2023/01/26 10:25:51;;;;;;;8.70;8.50;;;0.30;99.90;;;;;;5067857;28;20290;-81
2023/01/26 10:28:24;;;;;;;8.97;8.70;;;0.30;99.90;;;;;;5069404;28;20239;-82
2023/01/26 10:30:54;;;;;;;8.83;8.63;;;0.30;99.90;;;;;;5072931;28;20262;-82
2023/01/26 10:33:28;;;;;;;9.30;9.00;;;0.30;99.90;;;;;;5063078;28;20291;-82
2023/01/26 10:35:55;;;;;;;8.50;8.30;;;0.30;99.90;;;;;;5077620;28;20226;-82
2023/01/26 10:38:45;;;;;;;8.90;8.70;;;0.30;99.90;;;;;;5071374;28;20231;-82
2023/01/26 10:41:29;;;;;;;9.17;8.87;;;0.30;99.90;;;;;;5065346;28;20239;-82
2023/01/26 10:44:01;;;;;;;8.83;8.63;;;0.30;99.90;;;;;;5066586;28;20257;-82
2023/01/26 10:46:34;;;;;;;8.73;8.53;;;0.30;99.90;;;;;;5063081;28;20227;-83
2023/01/26 10:49:10;;;;;;;8.93;8.73;;;0.20;99.90;;;;;;5067815;28;20322;-82
2023/01/26 10:51:40;;;;;;;8.50;8.30;;;0.20;99.90;;;;;;5066254;28;20233;-82
2023/01/26 10:54:19;;;;;;;8.40;8.20;;;0.20;99.90;;;;;;5065340;28;20297;-82
2023/01/26 10:56:53;;;;;;;8.50;8.30;;;0.20;99.90;;;;;;5064424;28;20242;-82
2023/01/26 10:59:32;;;;;;;8.60;8.40;;;0.20;99.90;;;;;;5063152;28;20238;-82
2023/01/26 11:02:19;;;;;;;8.60;8.40;;;0.20;99.90;;;;;;5067860;28;20298;-82
2023/01/26 11:05:04;;;;;;;8.70;8.50;;;0.10;99.90;;;;;;5069999;28;20227;-82
2023/01/26 11:07:37;;;;;;;8.63;8.43;;;0.00;99.90;;;;;;5074052;28;20214;-82
2023/01/26 11:10:25;;;;;;;8.47;8.27;;;0.00;99.90;;;;;;5074624;28;20223;-82
2023/01/26 11:13:18;;;;;;;8.90;8.70;;;0.00;99.90;;;;;;5070082;28;20242;-82
2023/01/26 11:15:49;;;;;;;8.80;8.60;;;0.00;99.90;;;;;;5064726;28;20229;-84
2023/01/26 11:18:45;;;;;;;8.17;7.97;;;0.00;99.90;;;;;;5067180;28;20370;-83
2023/01/26 11:21:16;;;;;;;8.63;8.43;;;0.00;99.90;;;;;;5074463;28;20242;-83
2023/01/26 11:23:59;;;;;;;8.17;7.97;;;0.00;99.90;;;;;;5075663;28;20230;-82
2023/01/26 11:26:51;;;;;;;8.50;8.30;;;0.00;99.90;;;;;;5072943;28;20275;-83
2023/01/26 11:29:44;;;;;;;8.60;8.40;;;0.00;99.90;;;;;;5071933;28;20220;-81
2023/01/26 11:32:23;;;;;;;8.57;8.37;;;0.00;99.90;;;;;;5069202;28;20302;-83
2023/01/26 11:35:06;;;;;;;8.43;8.23;;;0.00;99.90;;;;;;5064626;28;20246;-82
2023/01/26 11:37:49;;;;;;;8.40;8.20;;;0.00;99.90;;;;;;5058633;28;20242;-85
2023/01/26 11:40:29;;;;;;;8.30;8.10;;;0.00;99.90;;;;;;5063393;28;20225;-82
2023/01/26 11:43:22;;;;;;;8.70;8.50;;;0.00;99.90;;;;;;5063190;28;20241;-83
2023/01/26 11:46:11;;;;;;;8.17;7.97;;;0.00;99.90;;;;;;5064958;28;20329;-82
2023/01/26 11:48:53;;;;;;;8.30;8.10;;;0.00;99.90;;;;;;5059747;28;20333;-83
2023/01/26 11:51:39;;;;;;;8.07;7.87;;;-0.10;99.90;;;;;;5062719;28;20217;-82
2023/01/26 11:54:28;;;;;;;8.50;8.30;;;0.00;99.90;;;;;;5068018;28;20289;-82
2023/01/26 11:57:03;;;;;;;8.37;8.17;;;-0.10;99.90;;;;;;5060816;28;20246;-82
2023/01/26 11:59:38;;;;;;;8.20;8.00;;;-0.10;99.90;;;;;;5064789;28;20234;-82
2023/01/26 12:02:25;;;;;;;7.97;7.77;;;-0.10;99.90;;;;;;5065357;28;20317;-83
2023/01/26 12:04:54;;;;;;;7.93;7.73;;;0.10;99.90;;;;;;5063238;28;20231;-82
2023/01/26 12:07:30;;;;;;;8.30;8.10;;;0.10;99.90;;;;;;5064564;28;20227;-81
2023/01/26 12:10:01;;;;;;;8.00;7.80;;;0.10;99.90;;;;;;5066417;28;20236;-82
2023/01/26 12:12:39;;;;;;;7.83;7.63;;;0.20;99.90;;;;;;5061795;28;20219;-83
2023/01/26 12:15:13;;;;;;;8.10;7.90;;;0.20;99.90;;;;;;5066632;28;20238;-82
2023/01/26 12:17:58;;;;;;;8.33;8.13;;;0.10;99.90;;;;;;5065400;28;20313;-83
2023/01/26 12:20:32;;;;;;;8.20;8.00;;;0.10;99.90;;;;;;5058989;28;20313;-82
2023/01/26 12:23:24;;;;;;;8.20;8.00;;;0.10;99.90;;;;;;5064826;28;20318;-83
2023/01/26 12:25:59;;;;;;;8.30;8.10;;;0.00;99.90;;;;;;5066993;28;20269;-83
2023/01/26 12:28:33;;;;;;;8.10;7.90;;;0.10;99.90;;;;;;5066386;28;20246;-82
2023/01/26 12:31:08;;;;;;;8.30;8.10;;;0.20;99.90;;;;;;5064336;28;20282;-84
2023/01/26 12:33:44;;;;;;;8.13;7.93;;;0.30;99.90;;;;;;5067604;28;20241;-85
2023/01/26 12:36:47;;;;;;;7.97;7.77;;;0.30;99.90;;;;;;5066894;28;20221;-83
2023/01/26 12:39:30;;;;;;;7.90;7.70;;;0.30;99.90;;;;;;5066855;28;20222;-84
2023/01/26 12:42:20;;;;;;;8.30;8.10;;;0.10;99.90;;;;;;5064865;28;20234;-83
2023/01/26 12:44:55;;;;;;;8.37;8.17;;;0.10;99.90;;;;;;5079801;28;20237;-83
2023/01/26 12:47:34;;;;;;;8.33;8.13;;;0.20;99.90;;;;;;5085307;28;20296;-83
2023/01/26 12:50:07;;;;;;;8.20;8.00;;;0.30;99.90;;;;;;5084983;28;20324;-85
2023/01/26 12:52:43;;;;;;;8.17;7.97;;;0.30;99.90;;;;;;5084708;28;20398;-83
2023/01/26 12:55:21;;;;;;;8.23;8.03;;;0.30;99.90;;;;;;5085207;28;20229;-83
2023/01/26 12:57:54;;;;;;;8.20;8.00;;;0.20;99.90;;;;;;5087128;28;20233;-83
2023/01/26 13:00:30;;;;;;;8.10;7.90;;;0.30;99.90;;;;;;5087160;28;20234;-84
2023/01/26 13:03:04;;;;;;;8.43;8.23;;;0.40;99.90;;;;;;5086444;28;20291;-82
2023/01/26 13:05:35;;;;;;;8.43;8.23;;;0.40;99.90;;;;;;5085204;28;20282;-83
2023/01/26 13:09:07;;;;;;;8.67;8.47;;;0.30;99.90;;;;;;5065985;28;20230;-84
2023/01/26 13:11:53;;;;;;;8.63;8.43;;;0.20;99.90;;;;;;4984420;28;20252;-84
2023/01/26 13:14:32;;;;;;;8.90;8.70;;;0.00;99.90;;;;;;4983979;28;20320;-84
2023/01/26 13:18:05;;;;;;;8.30;8.10;;;0.00;99.90;;;;;;5044973;28;20226;-84
2023/01/26 13:20:50;;;;;;;8.20;8.00;;;0.00;99.90;;;;;;5070503;28;20238;-84
2023/01/26 13:23:44;;;;;;;8.40;8.20;;;0.00;99.90;;;;;;5064866;28;20250;-83
2023/01/26 13:26:24;;;;;;;8.50;8.30;;;0.10;99.90;;;;;;5050812;28;20229;-84
2023/01/26 13:29:35;;;;;;;8.40;8.20;;;0.20;99.90;;;;;;5074572;28;21110;-82
2023/01/26 13:33:07;;;;;;;8.67;8.47;;;0.30;99.90;;;;;;5072688;28;20237;-84
2023/01/26 13:35:36;;;;;;;8.70;8.50;;;0.40;99.90;;;;;;5071356;28;20286;-84
2023/01/26 13:38:16;;;;;;;8.63;8.43;;;0.40;99.90;;;;;;5075781;28;20237;-84
2023/01/26 13:40:48;;;;;;;8.70;8.50;;;0.40;99.90;;;;;;5093282;28;20245;-83
2023/01/26 13:43:23;;;;;;;8.73;8.53;;;0.40;99.90;;;;;;5085628;28;20237;-85
2023/01/26 13:46:07;;;;;;;8.90;8.70;;;0.40;99.90;;;;;;5086291;28;21074;-84
2023/01/26 13:48:44;;;;;;;8.60;8.40;;;0.30;99.90;;;;;;5090328;28;20233;-84
2023/01/26 13:51:17;;;;;;;8.30;8.10;;;0.30;99.90;;;;;;5067285;28;20218;-85
2023/01/26 13:53:57;;;;;;;8.40;8.20;;;0.30;99.90;;;;;;5075031;28;20277;-83
2023/01/26 13:56:31;;;;;;;8.30;8.10;;;0.20;99.90;;;;;;5072254;28;20261;-84
2023/01/26 13:59:12;;;;;;;8.30;8.10;;;0.20;99.90;;;;;;5069699;28;20242;-83
2023/01/26 14:01:48;;;;;;;8.50;8.30;;;0.30;99.90;;;;;;5069742;28;20317;-83
2023/01/26 14:04:20;;;;;;;8.40;8.20;;;0.30;99.90;;;;;;5055257;28;20329;-83
2023/01/26 14:06:55;;;;;;;8.47;8.27;;;0.30;99.90;;;;;;5072506;28;20287;-84
2023/01/26 14:09:28;;;;;;;8.40;8.20;;;0.30;99.90;;;;;;5067919;28;20226;-84
2023/01/26 14:12:02;;;;;;;8.10;7.90;;;0.10;99.90;;;;;;5068489;28;20211;-84
2023/01/26 14:14:33;;;;;;;8.20;8.00;;;0.10;99.90;;;;;;5073941;28;20318;-84
2023/01/26 14:17:32;;;;;;;8.40;8.20;;;0.20;99.90;;;;;;5067944;28;20238;-84
2023/01/26 14:20:02;;;;;;;8.47;8.27;;;0.30;99.90;;;;;;5075625;28;20561;-85